Time;durP1;ratioP1;P1;durP2;ratioP2;P2;SDS_P1;SDS_P2;PMS_P1;PMS_P2;Temp;Humidity;BMP_temperature;BMP_pressure;BME280_temperature;BME280_humidity;BME280_pressure;Samples;Min_cycle;Max_cycle;Signal;HPM_P1;HPM_P2
2023/05/28 00:00:07;;;;;;;20.80;18.30;;;;;;;15.89;100.00;100619.61;105600;1254;71402;-86
2023/05/28 00:02:41;;;;;;;20.70;18.60;;;;;;;15.87;100.00;100623.01;105767;1257;60582;-84
2023/05/28 00:05:09;;;;;;;20.00;18.00;;;;;;;15.86;100.00;100623.63;105771;1254;60540;-83
2023/05/28 00:07:37;;;;;;;18.50;16.80;;;;;;;15.86;100.00;100626.23;105856;1254;73972;-85
2023/05/28 00:10:05;;;;;;;20.80;15.00;;;;;;;15.89;100.00;100627.78;105993;1254;63699;-85
2023/05/28 00:12:33;;;;;;;23.70;15.80;;;;;;;15.90;100.00;100630.52;105765;1254;71459;-85
2023/05/28 00:15:00;;;;;;;17.10;15.10;;;;;;;15.87;100.00;100633.06;105777;1259;60539;-86
2023/05/28 00:17:28;;;;;;;18.40;15.40;;;;;;;15.79;100.00;100635.27;105704;1253;60549;-88
2023/05/28 00:19:55;;;;;;;18.80;16.30;;;;;;;15.73;100.00;100639.65;105836;1253;73950;-85
2023/05/28 00:22:25;;;;;;;19.50;15.60;;;;;;;15.71;100.00;100644.52;106073;1256;63715;-86
2023/05/28 00:24:52;;;;;;;18.60;15.30;;;;;;;15.71;100.00;100646.33;105740;1254;71450;-85
2023/05/28 00:27:20;;;;;;;21.20;15.20;;;;;;;15.71;100.00;100642.81;105732;1258;61774;-84
2023/05/28 00:29:48;;;;;;;17.30;14.30;;;;;;;15.66;100.00;100645.13;105951;1253;60450;-87
2023/05/28 00:32:15;;;;;;;18.90;15.70;;;;;;;15.62;100.00;100651.23;105778;1254;73814;-84
2023/05/28 00:34:43;;;;;;;18.70;15.90;;;;;;;15.61;100.00;100642.39;105664;1257;63731;-84
2023/05/28 00:37:11;;;;;;;15.60;14.20;;;;;;;15.59;100.00;100642.85;105724;1256;71098;-83
2023/05/28 00:39:38;;;;;;;15.80;14.10;;;;;;;15.56;100.00;100644.31;105663;1259;60540;-82
2023/05/28 00:42:07;;;;;;;13.80;12.50;;;;;;;15.53;100.00;100648.21;105848;1258;60540;-88
2023/05/28 00:44:35;;;;;;;14.70;12.50;;;;;;;15.52;100.00;100640.75;105770;1254;72415;-85
2023/05/28 00:47:03;;;;;;;16.90;14.60;;;;;;;15.50;100.00;100641.48;105916;1254;62620;-86
2023/05/28 00:49:35;;;;;;;19.70;16.50;;;;;;;15.48;100.00;100643.55;105454;1261;73024;-84
2023/05/28 00:52:05;;;;;;;22.70;17.20;;;;;;;15.47;100.00;100651.42;105971;1257;61676;-84
2023/05/28 00:54:32;;;;;;;24.50;18.20;;;;;;;15.46;100.00;100654.32;105614;1254;60880;-84
2023/05/28 00:57:00;;;;;;;19.60;17.00;;;;;;;15.49;100.00;100657.58;106078;1254;72685;-85
2023/05/28 00:59:28;;;;;;;25.10;17.70;;;;;;;15.48;100.00;100652.23;106103;1254;62921;-84
2023/05/28 01:01:56;;;;;;;31.00;17.60;;;;;;;15.49;100.00;100652.83;106110;1254;71443;-84
2023/05/28 01:04:24;;;;;;;28.10;16.20;;;;;;;15.47;100.00;100655.62;106415;1254;61953;-85
2023/05/28 01:06:52;;;;;;;26.80;17.10;;;;;;;15.47;100.00;100658.33;106634;1257;60421;-85
2023/05/28 01:09:20;;;;;;;25.90;17.20;;;;;;;15.48;100.00;100660.88;105654;1260;72145;-86
2023/05/28 01:11:50;;;;;;;21.10;15.80;;;;;;;15.46;100.00;100654.80;105904;1253;62545;-85
2023/05/28 01:14:21;;;;;;;24.00;15.50;;;;;;;15.44;100.00;100656.58;105721;1254;71444;-86
2023/05/28 01:16:49;;;;;;;19.60;16.50;;;;;;;15.43;100.00;100649.40;105777;1259;61748;-88
2023/05/28 01:19:18;;;;;;;15.20;13.80;;;;;;;15.45;100.00;100646.28;105740;1254;60446;-84
2023/05/28 01:21:47;;;;;;;16.00;14.30;;;;;;;15.46;100.00;100650.62;105840;1254;73840;-83
2023/05/28 01:24:15;;;;;;;15.00;13.70;;;;;;;15.46;100.00;100650.77;105942;1253;63932;-83
2023/05/28 01:26:43;;;;;;;15.30;13.70;;;;;;;15.49;100.00;100647.52;105530;1254;71400;-82
2023/05/28 01:29:15;;;;;;;13.30;11.80;;;;;;;15.51;100.00;100640.68;105676;1254;60476;-85
2023/05/28 01:31:43;;;;;;;14.50;12.80;;;;;;;15.52;100.00;100638.85;105902;1256;60395;-85
2023/05/28 01:34:11;;;;;;;18.50;14.50;;;;;;;15.52;100.00;100638.27;105768;1254;72715;-87
2023/05/28 01:36:45;;;;;;;14.80;11.80;;;;;;;15.53;100.00;100642.09;105784;1256;63729;-88
2023/05/28 01:39:15;;;;;;;21.40;12.60;;;;;;;15.51;100.00;100641.97;105724;1258;72339;-87
2023/05/28 01:41:44;;;;;;;12.10;11.00;;;;;;;15.46;100.00;100638.31;105836;1254;61912;-87
2023/05/28 01:44:13;;;;;;;11.10;10.10;;;;;;;15.41;100.00;100641.17;105669;1260;60358;-85
2023/05/28 01:46:42;;;;;;;13.40;12.00;;;;;;;15.37;100.00;100639.73;105668;1253;72534;-85
2023/05/28 01:49:10;;;;;;;14.20;11.50;;;;;;;15.37;100.00;100635.14;105704;1259;63539;-85
2023/05/28 01:51:38;;;;;;;13.80;11.40;;;;;;;15.40;100.00;100635.06;105730;1253;74644;-87
2023/05/28 01:54:06;;;;;;;14.10;11.40;;;;;;;15.42;100.00;100645.31;105855;1254;63861;-88
2023/05/28 01:56:35;;;;;;;12.60;11.40;;;;;;;15.42;100.00;100645.85;105783;1254;60401;-84
2023/05/28 01:59:03;;;;;;;13.50;11.00;;;;;;;15.47;100.00;100649.14;105501;1260;73821;-84
2023/05/28 02:01:32;;;;;;;13.10;11.70;;;;;;;15.53;100.00;100647.02;105765;1256;63919;-85
2023/05/28 02:04:01;;;;;;;13.60;10.60;;;;;;;15.58;100.00;100647.73;105833;1254;72965;-86
2023/05/28 02:06:33;;;;;;;12.60;11.30;;;;;;;15.60;100.00;100650.36;105802;1258;61727;-84
2023/05/28 02:09:00;;;;;;;12.40;11.10;;;;;;;15.61;100.00;100648.86;106067;1259;60442;-86
2023/05/28 02:11:28;;;;;;;12.00;10.90;;;;;;;15.63;100.00;100643.77;105902;1257;74202;-86
2023/05/28 02:13:58;;;;;;;14.00;10.80;;;;;;;15.64;100.00;100643.70;105713;1259;63245;-84
2023/05/28 02:16:27;;;;;;;14.40;12.90;;;;;;;15.61;100.00;100651.15;105750;1254;72762;-86
2023/05/28 02:18:55;;;;;;;12.60;11.30;;;;;;;15.61;100.00;100652.24;105763;1254;60437;-84
2023/05/28 02:21:23;;;;;;;13.10;11.90;;;;;;;15.63;100.00;100652.38;105791;1256;60465;-86
2023/05/28 02:23:51;;;;;;;12.90;11.50;;;;;;;15.67;100.00;100652.82;105844;1256;73860;-83
2023/05/28 02:26:18;;;;;;;12.90;11.30;;;;;;;15.68;100.00;100652.84;105907;1254;62508;-84
2023/05/28 02:28:46;;;;;;;12.70;11.00;;;;;;;15.71;100.00;100650.73;105988;1256;70843;-85
2023/05/28 02:31:14;;;;;;;11.70;10.40;;;;;;;15.75;100.00;100648.29;105883;1254;60582;-85
2023/05/28 02:37:03;;;;;;;14.80;10.10;;;;;;;15.85;100.00;100651.91;102735;1290;614730;-84
2023/05/28 02:39:31;;;;;;;7.80;7.00;;;;;;;15.86;100.00;100651.29;105051;1264;61994;-85
2023/05/28 02:41:58;;;;;;;9.10;7.70;;;;;;;15.87;100.00;100644.14;104979;1264;59359;-85
2023/05/28 02:44:25;;;;;;;9.40;8.40;;;;;;;15.88;100.00;100643.68;105117;1268;72319;-84
2023/05/28 02:46:52;;;;;;;8.50;7.70;;;;;;;15.91;100.00;100646.80;105141;1266;62849;-84
2023/05/28 02:49:19;;;;;;;9.80;8.40;;;;;;;15.95;100.00;100653.92;104384;1261;886837;-86
2023/05/28 02:51:46;;;;;;;10.30;7.80;;;;;;;15.93;100.00;100654.54;105086;1260;60458;-86
2023/05/28 02:54:23;;;;;;;8.60;7.70;;;;;;;15.90;100.00;100658.67;105596;1263;59278;-84
2023/05/28 02:56:53;;;;;;;10.70;8.30;;;;;;;15.90;100.00;100653.05;105768;1257;72284;-85
2023/05/28 02:59:20;;;;;;;8.50;7.60;;;;;;;15.90;100.00;100658.17;106546;1257;64738;-86
2023/05/28 03:01:47;;;;;;;8.80;7.60;;;;;;;15.91;100.00;100661.97;106228;1257;71403;-86
2023/05/28 03:04:15;;;;;;;8.10;6.70;;;;;;;15.97;100.00;100659.42;105380;1258;61937;-86
2023/05/28 03:06:42;;;;;;;9.60;5.90;;;;;;;16.05;100.00;100661.73;105390;1257;60361;-85
2023/05/28 03:09:09;;;;;;;8.60;7.50;;;;;;;16.14;100.00;100661.80;105389;1257;71634;-86
2023/05/28 03:11:37;;;;;;;9.10;6.10;;;;;;;16.22;100.00;100660.69;105418;1258;62747;-85
2023/05/28 03:14:05;;;;;;;8.10;5.80;;;;;;;16.25;100.00;100658.80;105455;1258;71548;-85
2023/05/28 03:16:36;;;;;;;6.10;5.60;;;;;;;16.29;100.00;100664.46;105401;1263;61851;-85
2023/05/28 03:19:04;;;;;;;5.90;5.40;;;;;;;16.36;100.00;100659.66;105424;1258;60017;-86
2023/05/28 03:21:32;;;;;;;6.20;5.60;;;;;;;16.47;100.00;100658.20;105605;1260;72819;-86
2023/05/28 03:24:00;;;;;;;7.20;6.40;;;;;;;16.59;100.00;100662.33;105765;1260;63813;-84
2023/05/28 03:26:40;;;;;;;8.50;5.00;;;;;;;16.69;100.00;100662.69;105697;1260;72352;-85
2023/05/28 03:29:07;;;;;;;5.80;5.30;;;;;;;16.79;100.00;100663.83;105492;1260;61941;-87
2023/05/28 03:31:45;;;;;;;7.50;6.70;;;;;;;16.86;100.00;100670.65;105478;1258;60095;-84
2023/05/28 03:34:14;;;;;;;6.80;6.10;;;;;;;16.93;100.00;100669.84;105485;1258;72899;-85
2023/05/28 03:36:41;;;;;;;11.20;7.70;;;;;;;16.99;100.00;100669.34;106015;1255;62673;-86
2023/05/28 03:39:10;;;;;;;10.10;7.40;;;;;;;17.03;100.00;100675.02;106410;1250;72467;-85
2023/05/28 03:41:37;;;;;;;6.80;6.20;;;;;;;17.06;100.00;100671.41;106444;1254;60640;-88
2023/05/28 03:44:06;;;;;;;7.20;6.50;;;;;;;17.10;100.00;100668.44;106484;1248;60232;-86
2023/05/28 03:46:35;;;;;;;7.50;5.40;;;;;;;17.13;100.00;100668.30;106481;1254;72733;-87
2023/05/28 03:49:02;;;;;;;7.90;5.60;;;;;;;17.17;100.00;100670.61;106572;1252;63873;-84
2023/05/28 03:51:31;;;;;;;8.20;5.90;;;;;;;17.21;100.00;100671.85;106284;1249;72576;-86
2023/05/28 03:53:58;;;;;;;8.40;5.80;;;;;;;17.26;100.00;100671.79;106156;1250;60476;-87
2023/05/28 03:56:25;;;;;;;7.80;6.20;;;;;;;17.31;100.00;100678.20;106276;1249;60340;-85
2023/05/28 03:58:53;;;;;;;6.60;5.70;;;;;;;17.37;100.00;100678.25;106457;1253;72878;-86
2023/05/28 04:01:20;;;;;;;5.70;5.10;;;;;;;17.42;100.00;100677.17;106404;1250;63772;-85
2023/05/28 04:03:49;;;;;;;6.30;5.20;;;;;;;17.47;100.00;100682.02;107101;1251;73136;-84
2023/05/28 04:06:16;;;;;;;6.10;5.00;;;;;;;17.50;100.00;100680.13;107249;1251;60644;-85
2023/05/28 04:08:44;;;;;;;6.20;5.10;;;;;;;17.55;100.00;100681.27;106693;1251;60410;-86
2023/05/28 04:11:11;;;;;;;6.00;5.20;;;;;;;17.59;100.00;100681.80;106602;1251;72983;-86
2023/05/28 04:13:39;;;;;;;8.30;4.50;;;;;;;17.61;100.00;100679.85;106327;1256;63872;-87
2023/05/28 04:16:07;;;;;;;6.40;5.10;;;;;;;17.64;100.00;100683.69;106646;1251;72717;-85
2023/05/28 04:18:35;;;;;;;8.60;5.20;;;;;;;17.69;100.00;100682.17;106864;1257;61861;-85
2023/05/28 04:21:03;;;;;;;5.30;4.90;;;;;;;17.75;100.00;100682.48;106154;1251;59701;-87
2023/05/28 04:23:30;;;;;;;7.90;4.80;;;;;;;17.81;100.00;100683.06;106316;1254;71773;-87
2023/05/28 04:25:57;;;;;;;5.20;4.80;;;;;;;17.84;100.00;100683.86;106293;1250;64275;-86
2023/05/28 04:28:27;;;;;;;7.50;4.50;;;;;;;17.84;100.00;100685.84;106298;1250;72578;-87
2023/05/28 04:31:00;;;;;;;25.90;6.20;;;;;;;17.85;100.00;100681.45;106081;1256;60510;-86
2023/05/28 04:33:31;;;;;;;8.70;4.90;;;;;;;17.87;100.00;100678.16;106138;1249;59966;-88
2023/05/28 04:35:58;;;;;;;5.80;5.00;;;;;;;17.89;100.00;100685.18;106004;1256;71663;-86
2023/05/28 04:38:31;;;;;;;5.70;4.30;;;;;;;17.91;100.00;100685.85;105983;1256;63943;-86
2023/05/28 04:40:59;;;;;;;5.10;4.60;;;;;;;17.94;100.00;100690.76;106059;1251;70410;-87
2023/05/28 04:43:29;;;;;;;5.60;4.60;;;;;;;17.96;100.00;100694.46;106294;1250;62039;-86
2023/05/28 04:45:58;;;;;;;7.50;4.90;;;;;;;17.99;100.00;100693.31;106350;1249;60244;-85
2023/05/28 04:48:28;;;;;;;5.60;5.10;;;;;;;18.05;100.00;100695.25;106049;1255;73016;-88
2023/05/28 04:50:55;;;;;;;9.50;5.50;;;;;;;18.10;100.00;100693.52;106014;1251;63116;-89
2023/05/28 04:53:22;;;;;;;6.60;4.20;;;;;;;18.17;100.00;100697.02;106288;1253;72529;-87
2023/05/28 04:55:50;;;;;;;5.10;4.20;;;;;;;18.22;100.00;100693.13;106202;1255;61975;-88
2023/05/28 04:58:18;;;;;;;5.30;4.80;;;;;;;18.28;100.00;100696.90;106464;1251;60283;-87
2023/05/28 05:00:51;;;;;;;5.80;3.90;;;;;;;18.33;100.00;100696.29;106060;1250;72821;-87
2023/05/28 05:03:18;;;;;;;7.30;4.70;;;;;;;18.41;100.00;100695.30;106033;1254;64111;-87
2023/05/28 05:05:45;;;;;;;5.30;4.50;;;;;;;18.53;100.00;100699.20;106332;1251;72824;-89
2023/05/28 05:08:13;;;;;;;5.90;4.70;;;;;;;18.62;100.00;100704.17;106601;1250;61044;-90
2023/05/28 05:10:42;;;;;;;5.50;5.00;;;;;;;18.68;100.00;100706.27;106507;1252;59966;-88
2023/05/28 05:13:09;;;;;;;5.60;5.10;;;;;;;18.76;100.00;100707.54;106428;1252;72759;-86
2023/05/28 05:15:36;;;;;;;5.20;4.70;;;;;;;18.84;100.00;100704.13;106422;1251;65585;-88
2023/05/28 05:18:03;;;;;;;5.10;4.60;;;;;;;18.97;100.00;100711.36;105941;1256;71041;-85
2023/05/28 05:20:30;;;;;;;5.30;4.30;;;;;;;19.20;100.00;100716.33;106784;1251;61876;-84
2023/05/28 05:22:58;;;;;;;4.70;4.30;;;;;;;19.56;100.00;100718.23;107151;1251;60265;-87
2023/05/28 05:25:25;;;;;;;5.00;4.10;;;;;;;19.94;100.00;100717.92;106828;1256;72867;-87
2023/05/28 05:27:53;;;;;;;5.30;4.90;;;;;;;20.27;100.00;100720.55;106770;1254;62470;-87
2023/05/28 05:30:20;;;;;;;7.00;5.00;;;;;;;20.51;100.00;100718.29;106167;1254;72552;-86
2023/05/28 05:32:51;;;;;;;5.10;4.70;;;;;;;20.72;100.00;100720.85;106417;1252;60696;-92
2023/05/28 05:35:19;;;;;;;7.20;4.60;;;;;;;20.84;100.00;100721.57;105958;1251;60297;-85
2023/05/28 05:38:10;;;;;;;4.50;4.00;;;;;;;21.02;100.00;100716.55;106072;1254;72997;-89
2023/05/28 05:41:03;;;;;;;4.70;4.30;;;;;;;21.21;100.00;100717.61;106265;1252;63945;-86
2023/05/28 05:43:44;;;;;;;5.10;4.70;;;;;;;21.49;100.00;100720.25;107337;1251;72966;-87
2023/05/28 05:46:11;;;;;;;5.60;5.10;;;;;;;21.84;100.00;100718.17;106601;1251;59733;-86
2023/05/28 05:48:38;;;;;;;4.90;4.00;;;;;;;22.16;100.00;100722.64;106674;1251;60170;-86
2023/05/28 05:51:06;;;;;;;5.30;4.90;;;;;;;22.42;100.00;100723.72;107192;1251;73130;-85
2023/05/28 05:53:39;;;;;;;4.40;4.10;;;;;;;22.66;100.00;100720.20;106436;1255;63748;-87
2023/05/28 05:56:07;;;;;;;8.70;4.40;;;;;;;22.99;100.00;100723.75;106520;1252;71387;-87
2023/05/28 05:58:35;;;;;;;5.90;4.30;;;;;;;23.23;100.00;100727.18;106404;1251;61926;-87
2023/05/28 06:01:02;;;;;;;62.00;56.20;;;;;;;23.41;100.00;100730.30;106208;1251;59727;-85
2023/05/28 06:03:30;;;;;;;5.60;5.00;;;;;;;23.63;100.00;100730.50;106187;1249;72731;-88
2023/05/28 06:06:08;;;;;;;22.60;19.00;;;;;;;23.98;100.00;100730.80;106336;1251;62799;-89
2023/05/28 06:09:13;;;;;;;6.10;5.50;;;;;;;24.46;100.00;100734.16;106184;1251;72581;-89
2023/05/28 06:11:56;;;;;;;6.30;4.50;;;;;;;24.82;100.00;100738.02;106370;1256;59733;-92
2023/05/28 06:14:23;;;;;;;5.30;4.90;;;;;;;25.14;100.00;100736.33;106314;1250;60311;-90
2023/05/28 06:16:50;;;;;;;4.80;4.40;;;;;;;25.43;100.00;100740.23;106518;1251;71725;-88
2023/05/28 06:19:18;;;;;;;5.80;4.80;;;;;;;25.73;100.00;100741.32;106911;1253;64175;-91
2023/05/28 06:21:45;;;;;;;6.10;5.70;;;;;;;25.95;99.02;100742.09;106368;1255;72438;-90
2023/05/28 06:24:15;;;;;;;5.90;5.40;;;;;;;26.01;98.46;100736.49;106415;1250;60177;-90
2023/05/28 06:26:44;;;;;;;5.20;4.90;;;;;;;26.14;98.85;100741.52;106264;1249;60157;-91
2023/05/28 06:29:11;;;;;;;5.80;5.20;;;;;;;26.32;98.37;100739.45;106737;1254;72987;-90
2023/05/28 06:31:40;;;;;;;6.00;5.50;;;;;;;26.40;97.15;100740.43;106743;1251;63831;-91
2023/05/28 06:34:06;;;;;;;5.80;5.40;;;;;;;26.54;96.03;100744.91;106517;1252;72636;-89
2023/05/28 06:36:35;;;;;;;5.50;5.10;;;;;;;26.68;95.30;100745.63;106401;1251;60941;-89
2023/05/28 06:39:04;;;;;;;6.80;5.30;;;;;;;26.64;92.76;100740.12;106553;1252;60204;-91
2023/05/28 06:41:32;;;;;;;6.80;6.10;;;;;;;26.32;91.63;100741.46;106250;1254;72848;-91
2023/05/28 06:43:59;;;;;;;6.80;6.30;;;;;;;25.96;92.66;100741.73;106322;1256;63826;-92
2023/05/28 06:46:35;;;;;;;7.40;5.60;;;;;;;25.73;94.45;100740.98;106735;1251;72829;-88
2023/05/28 06:49:06;;;;;;;6.70;6.00;;;;;;;25.50;96.22;100743.02;106731;1252;60581;-88
2023/05/28 06:51:33;;;;;;;7.90;6.70;;;;;;;25.28;96.17;100742.39;107029;1251;60481;-90
2023/05/28 06:54:01;;;;;;;6.40;5.80;;;;;;;25.05;97.51;100742.03;106673;1252;72696;-89
2023/05/28 06:56:34;;;;;;;7.80;6.70;;;;;;;24.89;98.58;100741.09;107119;1251;62968;-89
2023/05/28 06:59:20;;;;;;;6.60;5.70;;;;;;;24.82;99.48;100739.05;107168;1251;72692;-88
2023/05/28 07:02:18;;;;;;;6.50;6.00;;;;;;;24.85;99.62;100740.63;107088;1252;60482;-90
2023/05/28 07:04:55;;;;;;;6.40;5.60;;;;;;;24.95;100.00;100742.48;106936;1252;60523;-89
2023/05/28 07:07:28;;;;;;;6.50;5.60;;;;;;;24.99;99.91;100746.16;106494;1254;73798;-89
2023/05/28 07:09:57;;;;;;;6.60;6.10;;;;;;;24.99;99.95;100745.78;106424;1258;62531;-89
2023/05/28 07:12:24;;;;;;;6.70;6.20;;;;;;;24.98;99.81;100750.36;106155;1254;72898;-90
2023/05/28 07:14:55;;;;;;;9.70;6.30;;;;;;;24.98;99.03;100750.23;106474;1254;61374;-90
2023/05/28 07:17:22;;;;;;;6.20;5.70;;;;;;;25.00;99.13;100749.16;106887;1259;60500;-89
2023/05/28 07:19:53;;;;;;;6.80;6.10;;;;;;;25.06;99.31;100748.58;106642;1259;73734;-90
2023/05/28 07:22:32;;;;;;;6.70;6.10;;;;;;;25.09;99.82;100742.77;106380;1258;65131;-92
2023/05/28 07:24:59;;;;;;;7.00;6.40;;;;;;;25.16;99.99;100747.16;106217;1257;74148;-87
2023/05/28 07:27:27;;;;;;;7.20;6.70;;;;;;;25.23;100.00;100746.17;106375;1259;60511;-89
2023/05/28 07:29:55;;;;;;;6.60;5.90;;;;;;;25.42;100.00;100747.09;106068;1254;60693;-89
2023/05/28 07:32:25;;;;;;;6.20;5.60;;;;;;;25.60;100.00;100747.16;106029;1259;73903;-89
2023/05/28 07:34:53;;;;;;;7.40;6.20;;;;;;;25.73;99.93;100741.23;106265;1259;63236;-90
2023/05/28 07:37:26;;;;;;;6.30;4.90;;;;;;;25.81;99.44;100744.88;106184;1254;71379;-89
2023/05/28 07:39:55;;;;;;;6.30;5.70;;;;;;;25.80;99.65;100746.08;106524;1251;60406;-90
2023/05/28 07:42:27;;;;;;;7.00;6.30;;;;;;;25.72;99.97;100744.13;106405;1256;60521;-88
2023/05/28 07:45:01;;;;;;;;;;;;;;;25.66;99.69;100745.73;106140;1256;72332;-90
2023/05/28 07:47:28;;;;;;;7.10;6.40;;;;;;;25.55;99.00;100749.44;106556;1253;63840;-89
2023/05/28 07:50:09;;;;;;;5.90;5.40;;;;;;;25.40;99.04;100750.77;106558;1251;72495;-92
2023/05/28 07:53:03;;;;;;;6.50;5.80;;;;;;;25.21;99.79;100751.98;106745;1252;60699;-87
2023/05/28 07:55:30;;;;;;;7.00;6.40;;;;;;;25.07;100.00;100751.64;106373;1251;60412;-88
2023/05/28 07:57:59;;;;;;;7.50;6.70;;;;;;;24.96;100.00;100749.50;106597;1252;72875;-91
2023/05/28 08:00:30;;;;;;;8.50;7.10;;;;;;;24.91;100.00;100747.89;106937;1251;62377;-91
2023/05/28 08:03:11;;;;;;;7.10;6.50;;;;;;;24.81;100.00;100745.80;106698;1252;71330;-90
2023/05/28 08:05:57;;;;;;;6.00;5.50;;;;;;;24.65;100.00;100746.38;106926;1253;60566;-90
2023/05/28 08:08:24;;;;;;;8.10;6.60;;;;;;;24.57;100.00;100744.61;106733;1251;60357;-87
2023/05/28 08:10:51;;;;;;;8.60;5.80;;;;;;;24.59;100.00;100744.29;109364;1251;73577;-89
2023/05/28 08:13:20;;;;;;;6.30;5.60;;;;;;;24.61;100.00;100744.74;109750;1251;62439;-89
2023/05/28 08:15:48;;;;;;;6.70;5.70;;;;;;;24.59;100.00;100743.52;109700;1250;72928;-88
2023/05/28 08:18:16;;;;;;;6.30;5.70;;;;;;;24.58;100.00;100746.22;109656;1249;59189;-89
2023/05/28 08:20:44;;;;;;;6.90;6.20;;;;;;;24.57;100.00;100746.58;109805;1248;58885;-90
2023/05/28 08:23:22;;;;;;;8.10;6.00;;;;;;;24.59;100.00;100749.63;109986;1250;72561;-87
2023/05/28 08:25:50;;;;;;;6.60;6.10;;;;;;;24.63;100.00;100751.99;109869;1250;62372;-89
2023/05/28 08:28:26;;;;;;;7.40;6.70;;;;;;;24.70;100.00;100752.28;108448;1251;71152;-88
2023/05/28 08:30:53;;;;;;;7.50;6.80;;;;;;;24.76;100.00;100743.54;107777;1251;60546;-89
2023/05/28 08:33:31;;;;;;;8.40;6.20;;;;;;;24.85;100.00;100741.37;107996;1251;60536;-90
2023/05/28 08:36:01;;;;;;;6.60;6.10;;;;;;;24.93;100.00;100744.38;108058;1251;73870;-91
2023/05/28 08:38:32;;;;;;;9.10;6.70;;;;;;;25.08;100.00;100740.96;107291;1251;62621;-89
2023/05/28 08:41:00;;;;;;;6.00;5.50;;;;;;;25.26;99.97;100741.37;107118;1256;71400;-89
2023/05/28 08:43:28;;;;;;;9.80;6.90;;;;;;;25.40;98.57;100744.02;106906;1254;60460;-89
2023/05/28 08:45:55;;;;;;;6.60;6.00;;;;;;;25.48;99.27;100742.21;107954;1251;60593;-89
2023/05/28 08:48:31;;;;;;;6.90;6.20;;;;;;;25.51;98.26;100742.17;106413;1256;73794;-91
2023/05/28 08:51:02;;;;;;;6.60;5.50;;;;;;;25.56;97.85;100743.55;106686;1251;62661;-94
2023/05/28 08:53:46;;;;;;;6.40;5.80;;;;;;;25.53;98.24;100745.11;106816;1252;71423;-90
2023/05/28 08:56:20;;;;;;;6.40;5.80;;;;;;;25.49;98.05;100746.06;107085;1251;60700;-90
2023/05/28 08:58:48;;;;;;;6.70;6.10;;;;;;;25.49;98.34;100743.55;107307;1251;60306;-90
2023/05/28 09:01:17;;;;;;;6.40;5.60;;;;;;;25.58;98.43;100747.17;108007;1252;73673;-91
2023/05/28 09:03:54;;;;;;;6.50;5.80;;;;;;;25.90;97.30;100746.83;107910;1251;63004;-90
2023/05/28 09:06:31;;;;;;;6.70;5.60;;;;;;;26.27;95.03;100744.58;107824;1251;72668;-91
2023/05/28 09:09:00;;;;;;;7.10;6.40;;;;;;;26.63;93.82;100748.31;108824;1260;60325;-89
2023/05/28 09:11:37;;;;;;;4.70;4.30;;;;;;;27.07;91.94;100736.23;108060;1255;61181;-90
2023/05/28 09:14:11;;;;;;;98.10;87.40;;;;;;;27.57;90.69;100741.76;107214;1256;73552;-92
2023/05/28 09:16:41;;;;;;;6.80;6.20;;;;;;;28.09;88.40;100732.41;106598;1257;63038;-90
2023/05/28 09:19:10;;;;;;;9.60;8.70;;;;;;;28.57;86.50;100736.41;106035;1257;72452;-89
2023/05/28 09:21:39;;;;;;;5.80;4.90;;;;;;;28.96;82.67;100731.66;106063;1260;60569;-89
2023/05/28 09:24:13;;;;;;;6.10;5.50;;;;;;;29.29;80.89;100731.02;106252;1257;60418;-90
2023/05/28 09:27:00;;;;;;;7.40;6.80;;;;;;;29.62;79.18;100729.68;106331;1259;72998;-90
2023/05/28 09:29:30;;;;;;;13.40;6.90;;;;;;;29.73;75.15;100728.91;105999;1259;64207;-90
2023/05/28 09:32:00;;;;;;;5.80;5.10;;;;;;;29.74;75.01;100729.52;105927;1257;72493;-89
2023/05/28 09:34:34;;;;;;;7.70;6.40;;;;;;;29.69;73.49;100727.24;105862;1259;60434;-89
2023/05/28 09:37:04;;;;;;;6.10;5.60;;;;;;;29.59;73.84;100720.17;106037;1259;60782;-88
2023/05/28 09:39:31;;;;;;;6.20;5.50;;;;;;;29.60;75.04;100713.02;106254;1261;72565;-89
2023/05/28 09:42:03;;;;;;;6.20;5.30;;;;;;;29.70;76.29;100707.61;107619;1251;62787;-90
2023/05/28 09:44:34;;;;;;;6.20;5.20;;;;;;;29.79;75.49;100708.12;106842;1252;71375;-88
2023/05/28 09:47:14;;;;;;;7.00;5.40;;;;;;;30.01;72.91;100703.28;107007;1255;60471;-89
2023/05/28 09:49:47;;;;;;;4.80;4.40;;;;;;;30.35;67.15;100701.89;106545;1251;60447;-88
2023/05/28 09:52:19;;;;;;;4.90;4.50;;;;;;;30.67;70.43;100698.81;106361;1251;73617;-89
2023/05/28 09:54:58;;;;;;;6.90;3.90;;;;;;;30.97;68.83;100695.99;106735;1251;62622;-89
2023/05/28 09:57:32;;;;;;;9.80;4.90;;;;;;;31.20;66.18;100690.88;106745;1253;71478;-90
2023/05/28 10:00:13;;;;;;;6.30;5.70;;;;;;;31.17;63.64;100692.86;107185;1260;60472;-89
2023/05/28 10:02:47;;;;;;;5.40;4.90;;;;;;;31.03;66.49;100694.94;108707;1251;60517;-90
2023/05/28 10:05:16;;;;;;;7.50;5.50;;;;;;;30.90;70.62;100692.02;108882;1254;72584;-89
2023/05/28 10:07:44;;;;;;;5.10;4.50;;;;;;;30.80;68.58;100693.95;108368;1257;64586;-90
2023/05/28 10:10:50;;;;;;;5.90;4.60;;;;;;;30.62;64.62;100697.83;108439;1256;71393;-89
2023/05/28 10:13:20;;;;;;;6.70;4.60;;;;;;;30.52;68.50;100694.88;107454;1260;60427;-90
2023/05/28 10:15:53;;;;;;;5.40;4.90;;;;;;;30.52;70.89;100692.75;106702;1258;60393;-91
2023/05/28 10:18:23;;;;;;;5.50;3.90;;;;;;;30.54;65.62;100690.78;107054;1263;72195;-92
2023/05/28 10:20:52;;;;;;;4.80;4.30;;;;;;;30.57;64.12;100690.54;106616;1260;62744;-89
2023/05/28 10:23:21;;;;;;;5.10;4.70;;;;;;;30.72;66.17;100677.23;107483;1257;71623;-89
2023/05/28 10:25:48;;;;;;;5.50;5.00;;;;;;;30.85;67.59;100675.16;109022;1257;59224;-90
2023/05/28 10:28:16;;;;;;;6.10;4.50;;;;;;;30.97;60.80;100673.91;109293;1257;58797;-88
2023/05/28 10:30:58;;;;;;;4.60;4.20;;;;;;;31.09;60.76;100673.02;109137;1257;74460;-90
2023/05/28 10:33:28;;;;;;;7.00;5.10;;;;;;;31.29;60.41;100683.16;108995;1257;62777;-90
2023/05/28 10:36:22;;;;;;;5.20;4.40;;;;;;;31.40;55.37;100679.75;109054;1258;74562;-89
2023/05/28 10:38:52;;;;;;;5.10;4.60;;;;;;;31.48;55.90;100686.63;108841;1257;60421;-90
2023/05/28 10:41:21;;;;;;;4.40;4.10;;;;;;;31.48;51.91;100691.88;107989;1257;60480;-90
2023/05/28 10:44:06;;;;;;;4.30;3.90;;;;;;;31.45;52.22;100690.71;108606;1258;74675;-89
2023/05/28 10:46:38;;;;;;;7.50;4.50;;;;;;;31.52;53.43;100692.73;107967;1250;62445;-89
2023/05/28 10:49:11;;;;;;;4.90;4.60;;;;;;;31.66;52.54;100691.60;108500;1252;71136;-90
2023/05/28 10:52:03;;;;;;;8.20;4.10;;;;;;;31.80;51.62;100686.77;108473;1250;59253;-90
2023/05/28 10:54:35;;;;;;;4.50;4.10;;;;;;;32.01;49.78;100679.13;108695;1251;59144;-91
2023/05/28 10:57:22;;;;;;;5.50;3.80;;;;;;;32.20;48.50;100670.92;108446;1254;72017;-93
2023/05/28 11:00:07;;;;;;;4.90;3.70;;;;;;;32.38;45.20;100675.61;108128;1251;65917;-90
2023/05/28 11:02:43;;;;;;;4.70;3.90;;;;;;;32.43;44.21;100672.17;107798;1251;72519;-94
2023/05/28 11:05:19;;;;;;;4.50;3.60;;;;;;;32.44;45.48;100672.16;107231;1253;60417;-89
2023/05/28 11:07:47;;;;;;;37.50;33.60;;;;;;;32.51;45.18;100672.10;107181;1251;60412;-86
2023/05/28 11:10:17;;;;;;;10.40;9.40;;;;;;;32.47;44.66;100678.90;108022;1256;74699;-90
2023/05/28 11:12:46;;;;;;;5.60;4.80;;;;;;;32.39;45.32;100686.65;108131;1255;64009;-88
2023/05/28 11:15:13;;;;;;;3.80;3.50;;;;;;;32.14;43.33;100693.45;108615;1251;71384;-91
2023/05/28 11:17:44;;;;;;;5.30;4.00;;;;;;;31.77;43.92;100693.08;108139;1251;59241;-89
2023/05/28 11:20:27;;;;;;;5.70;4.60;;;;;;;31.38;44.54;100688.29;107425;1251;61535;-90
2023/05/28 11:23:16;;;;;;;18.30;14.20;;;;;;;30.74;43.05;100682.39;107690;1259;74867;-91
2023/05/28 11:25:49;;;;;;;9.10;8.20;;;;;;;30.30;46.36;100692.31;107520;1253;63867;-92
2023/05/28 11:28:53;;;;;;;4.80;3.70;;;;;;;29.98;48.72;100719.91;107253;1257;71350;-88